BRLK1: Neosho River, Burlington, KS

Data processed at Tue May 21 2019 23:50


All information presented herein is the property of the government of the United States of America and may be revised or deleted at any time without prior notice.
Dissemination of this information without the expressed written consent of the Public Affairs Office, Tulsa District U.S. Army Corps of Engineers is strictly prohibited.
These data are gathered electronically and, as presented, have not undergone any form of quality control. These data are not guaranteed to be valid or correct.
Go to home page.
Go to station list.
Go to home page.

Upstream stations:

Downstream station:
Previous Day
Next Day
Current Day
    
SHEF ID:       BRLK1     Neosho River, Burlington, KS
STATION TYPE:  
Regulating: Stage =    23.00, Flow =    16777

               PRECIP     STAGE  RIV-FLOW  BAT-LOAD
                   in        ft       cfs      volt
              Ccp-Rev   Ccp-Rev   Ccp-Rev   Ccp-Rev
(US/Central)
05/21 00:00      0.05     23.59     17328     12.60
05/21 01:00      0.20     23.23     16992     12.60
05/21 02:00      0.04     22.86     16646     12.60
05/21 03:00      0.12     22.59     16392     12.60
05/21 04:00      0.08     22.26     16081     12.60
05/21 05:00      0.33     21.92     15759     12.60
05/21 06:00      0.79     21.72     15570     12.48
05/21 07:00      0.21     21.44     15303     12.60
05/21 08:00      0.07     21.78     15627     12.60
05/21 09:00      0.10     22.37     16185     12.60
05/21 10:00      0.00     22.71     16505     12.60
05/21 11:00      0.00     22.83     16618     12.83
05/21 12:00      0.00     22.81     16599     12.65
05/21 13:00      0.00     22.73     16524     12.77
05/21 14:00      0.00     22.50     16308      ----
05/21 15:00      0.00     22.33     16147     13.24
05/21 16:00      0.00     22.12     15949     13.30
05/21 17:00      0.00     22.05     15883     13.00
05/21 18:00      0.00     22.37     16185     13.07
05/21 19:00      0.00     22.52     16326     12.95
05/21 20:00      0.00     23.15     16918     12.83
05/21 21:00      0.00     23.85     17570     12.77
05/21 22:00      0.00     24.33     18014     12.71
05/21 23:00      0.00     24.73     18382     12.65